Terminal Aerodrome Forecast
Issued by NWS Twin Cities, MN

Home | Current Version | Previous Version | Graphics & Text | Print | Product List | Glossary On
Versions: 1 2 3 4 5 6 7 8 9 10 11 12
000
FTUS43 KMPX 250520
TAFSTC
TAF
KSTC 250520Z 2506/2606 VRB03KT P6SM SCT035 OVC050
     FM251500 15012G18KT P6SM BKN050 PROB30 2520/2524 P6SM -SHRA
      OVC050
     FM260000 14007KT P6SM OVC050=

USA.gov is the U.S. government's official web portal to all federal, state and local government web resources and services.